Time;durP1;ratioP1;P1;durP2;ratioP2;P2;SDS_P1;SDS_P2;PMS_P1;PMS_P2;Temp;Humidity;BMP_temperature;BMP_pressure;BME280_temperature;BME280_humidity;BME280_pressure;Samples;Min_cycle;Max_cycle;Signal;HPM_P1;HPM_P2
2021/03/18 00:00:15;;;;;;;12.40;4.50;;;2.80;91.30;;;;;;5075973;28;20032;-74
2021/03/18 00:02:41;;;;;;;10.50;4.97;;;2.70;91.30;;;;;;5075951;28;20390;-74
2021/03/18 00:05:08;;;;;;;8.88;4.47;;;2.70;91.30;;;;;;5075591;28;20037;-74
2021/03/18 00:07:35;;;;;;;18.25;5.38;;;2.70;91.20;;;;;;5075948;28;20036;-74
2021/03/18 00:10:01;;;;;;;11.70;5.20;;;2.60;91.40;;;;;;5076170;28;20082;-74
2021/03/18 00:12:26;;;;;;;8.63;5.10;;;2.60;91.30;;;;;;5075819;28;20040;-74
2021/03/18 00:14:52;;;;;;;11.05;4.70;;;2.60;91.30;;;;;;5075207;28;20045;-74
2021/03/18 00:17:18;;;;;;;10.65;5.15;;;2.60;91.40;;;;;;5075165;28;20106;-74
2021/03/18 00:19:44;;;;;;;11.43;4.85;;;2.60;91.60;;;;;;5075454;28;20048;-74
2021/03/18 00:22:09;;;;;;;16.67;5.13;;;2.60;91.60;;;;;;5075662;28;20033;-74
2021/03/18 00:24:35;;;;;;;9.73;5.63;;;2.60;91.50;;;;;;5075046;28;20067;-74
2021/03/18 00:27:01;;;;;;;11.85;4.90;;;2.60;91.50;;;;;;5057301;28;20146;-74
2021/03/18 00:29:26;;;;;;;13.23;5.20;;;2.60;91.70;;;;;;5075055;28;20378;-74
2021/03/18 00:31:52;;;;;;;12.32;5.07;;;2.60;91.50;;;;;;5075375;28;20098;-74
2021/03/18 00:34:18;;;;;;;15.05;5.05;;;2.60;91.50;;;;;;5075532;28;20051;-74
2021/03/18 00:36:44;;;;;;;16.67;4.95;;;2.60;91.50;;;;;;5075526;28;20044;-74
2021/03/18 00:39:11;;;;;;;11.45;4.88;;;2.60;91.70;;;;;;5057233;28;20036;-74
2021/03/18 00:41:37;;;;;;;9.75;6.00;;;2.60;91.60;;;;;;5075139;28;20037;-74
2021/03/18 00:44:04;;;;;;;9.43;4.95;;;2.60;91.70;;;;;;5074940;28;20040;-74
2021/03/18 00:46:29;;;;;;;11.45;4.90;;;2.60;91.70;;;;;;5074652;28;20491;-74
2021/03/18 00:48:55;;;;;;;13.95;4.97;;;2.60;91.90;;;;;;5075490;28;20119;-74
2021/03/18 00:51:22;;;;;;;12.48;4.82;;;2.60;91.60;;;;;;5075281;28;20123;-74
2021/03/18 00:53:48;;;;;;;13.02;5.32;;;2.60;91.70;;;;;;5075160;28;20086;-74
2021/03/18 00:56:17;;;;;;;10.75;4.25;;;2.50;91.60;;;;;;5074510;28;20037;-74
2021/03/18 00:58:44;;;;;;;7.65;4.07;;;2.60;91.60;;;;;;5074678;28;20048;-74
2021/03/18 01:01:13;;;;;;;10.90;4.68;;;2.60;91.60;;;;;;5074609;28;20060;-74
2021/03/18 01:03:40;;;;;;;16.40;5.85;;;2.60;91.60;;;;;;5074607;28;20041;-74
2021/03/18 01:06:16;;;;;;;13.48;4.25;;;2.70;91.60;;;;;;5073866;28;20037;-74
2021/03/18 01:08:42;;;;;;;11.43;4.53;;;2.70;91.60;;;;;;5074975;28;20059;-74
2021/03/18 01:11:17;;;;;;;8.90;4.20;;;2.70;91.50;;;;;;5074710;28;20037;-74
2021/03/18 01:13:45;;;;;;;6.97;4.13;;;2.80;91.60;;;;;;5075006;28;20115;-74
2021/03/18 01:16:25;;;;;;;9.95;4.97;;;2.70;91.60;;;;;;5074039;28;20474;-74
2021/03/18 01:19:00;;;;;;;15.40;4.25;;;2.80;91.60;;;;;;5074169;28;20033;-74
2021/03/18 01:21:32;;;;;;;8.65;4.50;;;2.80;91.60;;;;;;5074663;28;20473;-74
2021/03/18 01:23:59;;;;;;;12.23;5.47;;;2.80;91.60;;;;;;5074532;28;20072;-74
2021/03/18 01:26:24;;;;;;;10.57;3.97;;;2.80;91.70;;;;;;5074138;28;20450;-74
2021/03/18 01:28:50;;;;;;;9.15;3.92;;;2.80;91.60;;;;;;5074039;28;20064;-74
2021/03/18 01:31:16;;;;;;;7.78;4.22;;;2.80;91.50;;;;;;5074632;28;20089;-74
2021/03/18 01:33:42;;;;;;;11.73;4.43;;;2.80;91.40;;;;;;5074483;28;20033;-74
2021/03/18 01:36:13;;;;;;;9.48;3.97;;;2.80;91.40;;;;;;5073721;28;20064;-74
2021/03/18 01:38:43;;;;;;;12.15;4.55;;;2.80;91.30;;;;;;5074397;28;20032;-74
2021/03/18 01:41:09;;;;;;;10.40;4.65;;;2.80;91.30;;;;;;5074397;28;20043;-74
2021/03/18 01:43:35;;;;;;;10.82;5.22;;;2.80;91.20;;;;;;5056452;28;20036;-74
2021/03/18 01:46:01;;;;;;;6.50;4.22;;;2.80;91.20;;;;;;5073562;28;20039;-74
2021/03/18 01:48:27;;;;;;;10.02;4.07;;;2.80;91.20;;;;;;5073913;28;20044;-74
2021/03/18 01:50:54;;;;;;;12.88;4.85;;;2.70;91.20;;;;;;5074232;28;20036;-74
2021/03/18 01:53:22;;;;;;;12.48;4.68;;;2.70;91.30;;;;;;5055831;28;20064;-74
2021/03/18 01:55:48;;;;;;;9.27;4.63;;;2.80;91.40;;;;;;5073241;28;20385;-74
2021/03/18 01:58:15;;;;;;;10.52;4.47;;;2.80;91.40;;;;;;5073543;28;20032;-74
2021/03/18 02:00:44;;;;;;;7.50;3.70;;;2.70;91.40;;;;;;5074193;28;20043;-74
2021/03/18 02:03:09;;;;;;;6.50;4.13;;;2.70;91.40;;;;;;5073545;28;20041;-74
2021/03/18 02:05:35;;;;;;;10.18;3.92;;;2.70;91.30;;;;;;5073596;28;20045;-74
2021/03/18 02:08:03;;;;;;;10.48;4.13;;;2.70;91.30;;;;;;5073943;28;20037;-74
2021/03/18 02:10:31;;;;;;;11.48;3.75;;;2.70;91.20;;;;;;5055775;28;20041;-74
2021/03/18 02:12:58;;;;;;;5.72;3.80;;;2.70;91.10;;;;;;5073627;28;20037;-74
2021/03/18 02:15:28;;;;;;;8.48;4.22;;;2.70;91.20;;;;;;5073550;28;20529;-74
2021/03/18 02:18:22;;;;;;;9.07;4.75;;;2.70;91.20;;;;;;5072735;28;20040;-74
2021/03/18 02:21:20;;;;;;;10.10;4.10;;;2.70;91.20;;;;;;5074115;28;20048;-74
2021/03/18 02:24:15;;;;;;;8.60;3.92;;;2.70;91.20;;;;;;5073861;28;20036;-74
2021/03/18 02:26:53;;;;;;;6.78;4.20;;;2.70;91.20;;;;;;5055137;28;20056;-74
2021/03/18 02:29:36;;;;;;;9.55;4.90;;;2.70;91.10;;;;;;5073950;28;20060;-74
2021/03/18 02:32:16;;;;;;;8.68;4.47;;;2.70;91.20;;;;;;5073463;28;20392;-74
2021/03/18 02:35:16;;;;;;;10.38;4.45;;;2.70;91.20;;;;;;5055583;28;20036;-74
2021/03/18 02:37:45;;;;;;;9.75;4.28;;;2.60;91.30;;;;;;5073919;28;20039;-74
2021/03/18 02:40:15;;;;;;;12.70;4.45;;;2.60;91.30;;;;;;5073315;28;20476;-74
2021/03/18 02:42:41;;;;;;;6.25;3.55;;;2.60;91.20;;;;;;5073847;28;20037;-74
2021/03/18 02:45:09;;;;;;;8.27;3.75;;;2.60;91.10;;;;;;5073457;28;20040;-74
2021/03/18 02:47:37;;;;;;;8.60;4.30;;;2.60;91.10;;;;;;5074314;28;20056;-74
2021/03/18 02:50:06;;;;;;;10.02;4.20;;;2.60;91.30;;;;;;5074183;28;20059;-74
2021/03/18 02:52:33;;;;;;;11.30;4.47;;;2.60;91.30;;;;;;5073355;28;20185;-74
2021/03/18 02:55:01;;;;;;;10.13;3.90;;;2.60;91.30;;;;;;5073358;28;20094;-74
2021/03/18 02:57:30;;;;;;;14.00;3.90;;;2.60;91.20;;;;;;5055276;28;20090;-74
2021/03/18 02:59:59;;;;;;;9.95;4.20;;;2.60;91.10;;;;;;5073313;28;20067;-74
2021/03/18 03:02:28;;;;;;;8.35;3.97;;;2.60;91.10;;;;;;5073485;28;20043;-74
2021/03/18 03:05:01;;;;;;;6.07;3.80;;;2.60;91.10;;;;;;5073231;28;20453;-74
2021/03/18 03:07:30;;;;;;;9.63;3.80;;;2.50;91.00;;;;;;5072934;28;20082;-74
2021/03/18 03:09:59;;;;;;;8.50;4.10;;;2.50;91.00;;;;;;5073100;28;20041;-74
2021/03/18 03:12:27;;;;;;;11.38;4.10;;;2.50;91.00;;;;;;5072720;28;20081;-74
2021/03/18 03:14:55;;;;;;;6.70;3.50;;;2.50;91.10;;;;;;5072505;28;20499;-74
2021/03/18 03:17:24;;;;;;;10.02;4.55;;;2.40;91.10;;;;;;5072557;28;20075;-74
2021/03/18 03:19:53;;;;;;;8.77;3.60;;;2.40;91.00;;;;;;5072913;28;20033;-74
2021/03/18 03:22:20;;;;;;;8.02;3.42;;;2.40;91.00;;;;;;5072816;28;20425;-74
2021/03/18 03:24:46;;;;;;;7.78;3.40;;;2.40;91.00;;;;;;5054953;28;20123;-74
2021/03/18 03:27:13;;;;;;;7.78;3.40;;;2.40;91.00;;;;;;5072838;28;20041;-74
2021/03/18 03:29:42;;;;;;;7.80;3.20;;;2.40;90.90;;;;;;5075197;28;20067;-74
2021/03/18 03:32:09;;;;;;;5.50;3.45;;;2.30;90.90;;;;;;5076998;28;20040;-74
2021/03/18 03:34:37;;;;;;;10.18;3.15;;;2.30;91.00;;;;;;5076436;28;20123;-74
2021/03/18 03:37:05;;;;;;;11.07;4.18;;;2.30;91.00;;;;;;5076439;28;20087;-74
2021/03/18 03:39:31;;;;;;;5.93;3.22;;;2.30;91.10;;;;;;5076719;28;20115;-74
2021/03/18 03:41:57;;;;;;;9.05;3.95;;;2.40;91.20;;;;;;5076177;28;20406;-74
2021/03/18 03:44:23;;;;;;;4.90;2.90;;;2.40;91.20;;;;;;5076649;28;20040;-74
2021/03/18 03:46:49;;;;;;;6.85;3.40;;;2.40;91.20;;;;;;5076006;28;20040;-74
2021/03/18 03:49:14;;;;;;;6.60;3.75;;;2.30;91.30;;;;;;5076029;28;20085;-74
2021/03/18 03:52:18;;;;;;;9.27;3.65;;;2.30;91.50;;;;;;5058613;28;20044;-74
2021/03/18 03:54:59;;;;;;;10.38;3.50;;;2.30;91.60;;;;;;5076229;28;20036;-74
2021/03/18 03:57:43;;;;;;;6.13;3.60;;;2.30;91.60;;;;;;5075839;28;20036;-74
2021/03/18 04:00:10;;;;;;;4.93;3.90;;;2.30;91.70;;;;;;5075840;28;20040;-74
2021/03/18 04:02:36;;;;;;;5.82;3.75;;;2.30;91.60;;;;;;5076079;28;20039;-74
2021/03/18 04:05:03;;;;;;;7.07;3.45;;;2.30;91.90;;;;;;5058185;28;20400;-74
2021/03/18 04:07:33;;;;;;;8.45;3.80;;;2.30;91.70;;;;;;5075480;28;20079;-74
2021/03/18 04:10:01;;;;;;;7.07;3.47;;;2.30;91.70;;;;;;5075661;28;20036;-74
2021/03/18 04:12:32;;;;;;;7.15;3.42;;;2.30;91.70;;;;;;5075862;28;20037;-74
2021/03/18 04:15:03;;;;;;;8.00;4.70;;;2.30;91.60;;;;;;5075643;28;20087;-74
2021/03/18 04:17:31;;;;;;;9.35;3.83;;;2.30;91.70;;;;;;5075300;28;20094;-74
2021/03/18 04:19:58;;;;;;;11.65;4.35;;;2.40;91.70;;;;;;5075395;28;20059;-74
2021/03/18 04:22:28;;;;;;;6.68;3.67;;;2.40;91.70;;;;;;5075424;28;20089;-74
2021/03/18 04:24:55;;;;;;;10.77;4.43;;;2.40;91.70;;;;;;5075398;28;20071;-74
2021/03/18 04:27:22;;;;;;;8.90;4.43;;;2.30;91.80;;;;;;5075129;28;20404;-74
2021/03/18 04:29:48;;;;;;;8.88;4.10;;;2.30;91.90;;;;;;5075363;28;20032;-74
2021/03/18 04:32:15;;;;;;;11.07;4.07;;;2.30;92.00;;;;;;5057904;28;20512;-74
2021/03/18 04:34:43;;;;;;;8.18;4.47;;;2.40;92.00;;;;;;5074942;28;20392;-74
2021/03/18 04:37:10;;;;;;;9.57;5.05;;;2.40;92.10;;;;;;5075215;28;20037;-74
2021/03/18 04:39:37;;;;;;;7.47;4.40;;;2.30;92.30;;;;;;5074857;28;20037;-74
2021/03/18 04:42:07;;;;;;;8.13;4.80;;;2.30;92.30;;;;;;5075127;28;20032;-74
2021/03/18 04:44:34;;;;;;;7.25;4.53;;;2.30;92.30;;;;;;5075025;28;20041;-74
2021/03/18 04:47:01;;;;;;;14.13;4.68;;;2.40;92.30;;;;;;5075104;28;20079;-74
2021/03/18 04:49:28;;;;;;;14.35;4.20;;;2.40;92.60;;;;;;5056955;28;20064;-74
2021/03/18 04:51:54;;;;;;;13.93;4.93;;;2.40;92.30;;;;;;5075096;28;20310;-74
2021/03/18 04:54:21;;;;;;;9.73;4.43;;;2.40;92.30;;;;;;5074852;28;20040;-74
2021/03/18 04:56:48;;;;;;;9.85;4.05;;;2.40;92.40;;;;;;5074914;28;20041;-74
2021/03/18 04:59:16;;;;;;;8.57;4.32;;;2.50;92.40;;;;;;5075194;28;20068;-74
2021/03/18 05:01:48;;;;;;;15.50;7.13;;;2.50;92.40;;;;;;5074891;28;20224;-74
2021/03/18 05:04:18;;;;;;;8.40;5.03;;;2.60;92.30;;;;;;5074764;28;20040;-74
2021/03/18 05:06:50;;;;;;;10.65;4.82;;;2.60;92.30;;;;;;5056430;28;20036;-74
2021/03/18 05:09:17;;;;;;;9.73;4.40;;;2.60;92.30;;;;;;5074480;28;20037;-74
2021/03/18 05:11:43;;;;;;;16.27;6.57;;;2.60;92.30;;;;;;5074381;28;20036;-74
2021/03/18 05:14:10;;;;;;;7.65;4.80;;;2.50;92.50;;;;;;5074278;28;20039;-74
2021/03/18 05:16:37;;;;;;;13.60;6.22;;;2.60;92.50;;;;;;5074331;28;20047;-74
2021/03/18 05:19:10;;;;;;;7.60;4.18;;;2.60;92.40;;;;;;5074264;28;20045;-74
2021/03/18 05:21:39;;;;;;;12.57;5.50;;;2.60;92.40;;;;;;5056543;28;20044;-74
2021/03/18 05:24:07;;;;;;;11.68;5.57;;;2.60;92.50;;;;;;5074720;28;20041;-74
2021/03/18 05:26:33;;;;;;;7.65;4.90;;;2.60;92.70;;;;;;5073870;28;20052;-74
2021/03/18 05:28:59;;;;;;;10.13;4.88;;;2.70;92.70;;;;;;5074684;28;20107;-74
2021/03/18 05:31:25;;;;;;;10.90;5.40;;;2.70;92.60;;;;;;5074007;28;20110;-74
2021/03/18 05:33:51;;;;;;;15.32;5.78;;;2.80;92.60;;;;;;5073932;28;20082;-74
2021/03/18 05:36:18;;;;;;;11.57;5.63;;;2.80;92.60;;;;;;5073800;28;20071;-74
2021/03/18 05:38:43;;;;;;;12.02;5.68;;;2.80;92.70;;;;;;5074240;28;20063;-74
2021/03/18 05:41:09;;;;;;;16.08;6.15;;;2.80;92.70;;;;;;5073883;28;20036;-74
2021/03/18 05:43:35;;;;;;;10.50;5.97;;;2.80;92.70;;;;;;5073780;28;20098;-74
2021/03/18 05:46:02;;;;;;;8.85;4.95;;;2.80;92.60;;;;;;5073599;28;20036;-74
2021/03/18 05:48:30;;;;;;;8.30;5.22;;;2.90;92.60;;;;;;5074518;28;20037;-74
2021/03/18 05:50:57;;;;;;;10.02;5.22;;;3.00;92.50;;;;;;5074188;28;20032;-74
2021/03/18 05:53:24;;;;;;;11.48;5.40;;;3.00;92.50;;;;;;5074391;28;20044;-74
2021/03/18 05:55:52;;;;;;;10.65;5.93;;;3.00;92.50;;;;;;5073317;28;20052;-74
2021/03/18 05:58:22;;;;;;;15.43;5.38;;;3.00;92.50;;;;;;5073824;28;20051;-74
2021/03/18 06:00:50;;;;;;;11.23;6.43;;;3.00;92.60;;;;;;5073798;28;20124;-74
2021/03/18 06:03:20;;;;;;;10.23;5.50;;;3.00;92.60;;;;;;5073932;28;20032;-74
2021/03/18 06:05:47;;;;;;;13.25;5.80;;;3.00;92.60;;;;;;5073327;28;20040;-74
2021/03/18 06:08:13;;;;;;;14.00;5.78;;;3.00;92.70;;;;;;5055575;28;20111;-74
2021/03/18 06:10:39;;;;;;;15.15;6.40;;;3.00;92.90;;;;;;5073723;28;20071;-74
2021/03/18 06:13:05;;;;;;;11.25;5.82;;;3.00;92.80;;;;;;5073581;28;20047;-74
2021/03/18 06:15:31;;;;;;;12.80;6.45;;;3.00;92.90;;;;;;5073128;28;20037;-74
2021/03/18 06:17:57;;;;;;;12.90;6.40;;;3.00;92.80;;;;;;5073449;28;20047;-74
2021/03/18 06:20:25;;;;;;;13.85;7.90;;;3.00;93.00;;;;;;5073940;28;20033;-74
2021/03/18 06:22:52;;;;;;;16.55;7.38;;;3.00;93.10;;;;;;5074037;28;20033;-74
2021/03/18 06:25:21;;;;;;;13.70;7.07;;;3.00;93.00;;;;;;5055459;28;20052;-74
2021/03/18 06:27:47;;;;;;;9.27;6.80;;;3.10;93.10;;;;;;5073241;28;20086;-72
2021/03/18 06:30:13;;;;;;;13.10;7.88;;;3.10;93.20;;;;;;5073405;28;20115;-73
2021/03/18 06:32:39;;;;;;;17.48;7.28;;;3.20;93.20;;;;;;5073775;28;20036;-73
2021/03/18 06:35:05;;;;;;;12.68;8.38;;;3.20;93.20;;;;;;5073371;28;20041;-73
2021/03/18 06:37:50;;;;;;;15.70;8.95;;;3.20;93.20;;;;;;5073361;28;20045;-73
2021/03/18 06:40:24;;;;;;;18.00;10.70;;;3.30;93.20;;;;;;5073355;28;20036;-72
2021/03/18 06:42:54;;;;;;;;;;;3.40;93.20;;;;;;5073516;28;20047;-73
2021/03/18 06:45:21;;;;;;;17.58;8.75;;;3.40;93.60;;;;;;5072957;28;19947;-73
2021/03/18 06:48:01;;;;;;;13.40;7.63;;;3.40;93.20;;;;;;5073544;28;20037;-73
2021/03/18 06:50:33;;;;;;;11.93;6.85;;;3.40;93.30;;;;;;5073255;28;20044;-73
2021/03/18 06:52:59;;;;;;;10.85;7.22;;;3.50;93.30;;;;;;5073263;28;20037;-73
2021/03/18 06:55:34;;;;;;;17.63;7.35;;;3.60;93.40;;;;;;5072611;28;20040;-73
2021/03/18 06:58:23;;;;;;;19.23;7.47;;;3.60;93.50;;;;;;5072883;28;20041;-73
2021/03/18 07:01:05;;;;;;;16.85;7.63;;;3.60;93.30;;;;;;5073395;28;20045;-73
2021/03/18 07:03:33;;;;;;;14.45;7.80;;;3.70;93.20;;;;;;5073944;28;20079;-73
2021/03/18 07:06:00;;;;;;;11.55;6.43;;;3.80;93.30;;;;;;5076823;28;20044;-73
2021/03/18 07:08:31;;;;;;;11.35;6.40;;;3.80;93.40;;;;;;5076749;28;20037;-73
2021/03/18 07:10:58;;;;;;;14.40;8.88;;;3.90;93.40;;;;;;5076814;28;20036;-73
2021/03/18 07:13:26;;;;;;;11.82;6.43;;;3.90;93.40;;;;;;5076966;28;20120;-73
2021/03/18 07:15:55;;;;;;;10.18;6.68;;;4.00;93.30;;;;;;5076795;28;20044;-73
2021/03/18 07:18:22;;;;;;;13.85;7.68;;;4.00;93.20;;;;;;5076541;28;20458;-73
2021/03/18 07:21:02;;;;;;;12.52;6.97;;;4.00;93.30;;;;;;5077137;28;20361;-73
2021/03/18 07:23:33;;;;;;;12.77;6.75;;;4.10;93.20;;;;;;5058781;28;20041;-73
2021/03/18 07:26:00;;;;;;;10.73;6.60;;;4.10;93.30;;;;;;5075909;28;20044;-73
2021/03/18 07:28:25;;;;;;;12.57;7.38;;;4.20;93.30;;;;;;5076756;28;20032;-73
2021/03/18 07:30:51;;;;;;;14.30;7.03;;;4.20;93.40;;;;;;5076366;28;20107;-73
2021/03/18 07:33:19;;;;;;;10.63;6.72;;;4.20;93.50;;;;;;5076761;28;20032;-73
2021/03/18 07:35:46;;;;;;;10.15;5.85;;;4.20;93.60;;;;;;5076329;28;20044;-73
2021/03/18 07:38:11;;;;;;;11.73;6.00;;;4.30;93.60;;;;;;5076361;28;20037;-73
2021/03/18 07:40:37;;;;;;;15.32;6.97;;;4.30;93.50;;;;;;5076193;28;20033;-73
2021/03/18 07:43:03;;;;;;;16.02;5.82;;;4.40;93.70;;;;;;5041565;28;20059;-73
2021/03/18 07:45:29;;;;;;;16.25;6.07;;;4.40;93.70;;;;;;5075827;28;20046;-73
2021/03/18 07:47:55;;;;;;;12.68;6.15;;;4.40;93.60;;;;;;5076169;28;20119;-73
2021/03/18 07:50:33;;;;;;;10.75;6.65;;;4.40;93.60;;;;;;5076699;28;20098;-73
2021/03/18 07:53:00;;;;;;;14.95;6.82;;;4.50;93.80;;;;;;5076266;28;20064;-73
2021/03/18 07:55:26;;;;;;;11.52;5.40;;;4.50;93.90;;;;;;5057736;28;20051;-74
2021/03/18 07:57:52;;;;;;;15.10;6.85;;;4.60;93.80;;;;;;5076473;28;20047;-73
2021/03/18 08:00:23;;;;;;;17.73;7.00;;;4.60;93.70;;;;;;5076103;28;20036;-71
2021/03/18 08:02:51;;;;;;;11.18;6.45;;;4.70;93.80;;;;;;5074411;28;20044;-72
2021/03/18 08:05:36;;;;;;;14.60;6.70;;;4.70;93.80;;;;;;5075301;28;20048;-72
2021/03/18 08:08:03;;;;;;;15.52;6.60;;;4.80;93.90;;;;;;5076075;28;20037;-72
2021/03/18 08:10:29;;;;;;;18.17;7.15;;;4.80;93.70;;;;;;5075721;28;20488;-72
2021/03/18 08:13:05;;;;;;;14.50;7.30;;;4.80;93.50;;;;;;5075656;28;20068;-72
2021/03/18 08:15:34;;;;;;;14.70;7.93;;;4.90;93.80;;;;;;5074449;28;20032;-72
2021/03/18 08:18:14;;;;;;;24.45;8.15;;;5.00;93.70;;;;;;5075538;28;20047;-72
2021/03/18 08:20:40;;;;;;;17.48;7.82;;;5.00;93.50;;;;;;5075847;28;20067;-72
2021/03/18 08:23:27;;;;;;;16.38;7.18;;;5.10;93.40;;;;;;5076119;28;20067;-72
2021/03/18 08:26:00;;;;;;;13.60;6.45;;;5.20;93.70;;;;;;5075065;28;20044;-72
2021/03/18 08:28:41;;;;;;;17.50;6.05;;;5.20;93.60;;;;;;5057463;28;20171;-72
2021/03/18 08:31:21;;;;;;;17.15;6.93;;;5.20;93.30;;;;;;5075342;28;20036;-72
2021/03/18 08:33:54;;;;;;;14.38;6.88;;;5.20;93.30;;;;;;5075183;28;20047;-72
2021/03/18 08:36:23;;;;;;;15.85;7.63;;;5.20;93.40;;;;;;5057052;28;20045;-72
2021/03/18 08:38:50;;;;;;;18.13;7.45;;;5.30;93.40;;;;;;5075104;28;20044;-72
2021/03/18 08:41:29;;;;;;;13.57;6.40;;;5.30;93.40;;;;;;5075168;28;20137;-72
2021/03/18 08:44:23;;;;;;;17.48;6.90;;;5.30;93.10;;;;;;5075107;28;20033;-72
2021/03/18 08:46:49;;;;;;;13.85;6.95;;;5.30;93.20;;;;;;5075011;28;20040;-72
2021/03/18 08:49:25;;;;;;;15.93;7.10;;;5.30;93.20;;;;;;5074977;28;20037;-72
2021/03/18 08:51:52;;;;;;;17.20;6.53;;;5.40;93.20;;;;;;5074770;28;20464;-72
2021/03/18 08:54:36;;;;;;;25.10;7.07;;;5.40;93.10;;;;;;5074705;28;20437;-72
2021/03/18 08:57:03;;;;;;;20.88;7.38;;;5.50;93.10;;;;;;5074895;28;20480;-72
2021/03/18 08:59:29;;;;;;;15.18;6.05;;;5.50;93.00;;;;;;5074726;28;20108;-72
2021/03/18 09:02:10;;;;;;;14.35;5.82;;;5.50;93.00;;;;;;5074581;28;20033;-72
2021/03/18 09:04:41;;;;;;;16.88;5.22;;;5.60;93.00;;;;;;5074599;28;20052;-72
2021/03/18 09:07:28;;;;;;;15.32;4.47;;;5.60;92.80;;;;;;5074778;28;20043;-72
2021/03/18 09:10:14;;;;;;;15.50;5.80;;;5.60;92.60;;;;;;5056227;28;20377;-72
2021/03/18 09:12:58;;;;;;;12.93;5.38;;;5.70;92.60;;;;;;5060560;28;20079;-72
2021/03/18 09:15:26;;;;;;;17.05;4.75;;;5.70;92.90;;;;;;5073877;28;20040;-72
2021/03/18 09:17:54;;;;;;;14.38;4.97;;;5.70;92.40;;;;;;5074495;28;20037;-73
2021/03/18 09:20:24;;;;;;;11.90;5.15;;;5.80;92.50;;;;;;5074446;28;20090;-72
2021/03/18 09:22:50;;;;;;;15.35;4.30;;;5.80;92.20;;;;;;5074576;28;20037;-72
2021/03/18 09:25:16;;;;;;;11.88;4.85;;;6.00;92.20;;;;;;5073793;28;20115;-72
2021/03/18 09:27:45;;;;;;;15.90;4.53;;;6.10;92.20;;;;;;5074363;28;20472;-72
2021/03/18 09:30:18;;;;;;;16.58;5.25;;;6.10;92.00;;;;;;5074415;28;20369;-72
2021/03/18 09:32:44;;;;;;;17.27;4.90;;;6.10;91.80;;;;;;5074179;28;20036;-72
2021/03/18 09:35:12;;;;;;;13.25;4.43;;;6.20;91.70;;;;;;5074128;28;20098;-72
2021/03/18 09:37:38;;;;;;;14.15;4.57;;;6.20;91.30;;;;;;5074366;28;20107;-72
2021/03/18 09:40:05;;;;;;;16.95;5.00;;;6.20;91.40;;;;;;5074427;28;20036;-72
2021/03/18 09:42:30;;;;;;;16.15;5.38;;;6.30;91.20;;;;;;5074018;28;20040;-72
2021/03/18 09:44:57;;;;;;;12.10;4.47;;;6.40;91.30;;;;;;5073571;28;20052;-72
2021/03/18 09:47:22;;;;;;;13.38;5.00;;;6.40;91.00;;;;;;5073812;28;20040;-72
2021/03/18 09:49:53;;;;;;;12.85;5.30;;;6.50;90.80;;;;;;5074044;28;20043;-71
2021/03/18 09:52:24;;;;;;;21.73;5.20;;;6.50;90.60;;;;;;5074129;28;20115;-72
2021/03/18 09:54:50;;;;;;;13.20;5.05;;;6.60;91.00;;;;;;5073471;28;20048;-72
2021/03/18 09:57:17;;;;;;;15.65;5.80;;;6.80;90.50;;;;;;5073770;28;20036;-72
2021/03/18 09:59:48;;;;;;;17.90;5.38;;;6.90;90.40;;;;;;5074437;28;20037;-72
2021/03/18 10:02:16;;;;;;;24.13;5.97;;;7.00;90.40;;;;;;5074093;28;20107;-72
2021/03/18 10:04:43;;;;;;;22.45;5.82;;;7.00;90.00;;;;;;5073560;28;20055;-72
2021/03/18 10:07:10;;;;;;;16.50;6.03;;;7.00;89.80;;;;;;5073721;28;20067;-72
2021/03/18 10:09:42;;;;;;;21.33;5.07;;;6.90;89.70;;;;;;5056251;28;20097;-71
2021/03/18 10:12:28;;;;;;;19.98;5.47;;;6.90;89.50;;;;;;5074067;28;20036;-72
2021/03/18 10:15:02;;;;;;;14.43;4.65;;;6.80;89.40;;;;;;5073442;28;20040;-72
2021/03/18 10:17:35;;;;;;;17.80;5.43;;;6.60;89.70;;;;;;5055693;28;20076;-72
2021/03/18 10:20:19;;;;;;;17.17;5.18;;;6.50;90.00;;;;;;5073925;28;20033;-72
2021/03/18 10:23:06;;;;;;;22.88;5.78;;;6.60;89.90;;;;;;5074112;28;20043;-73
2021/03/18 10:25:36;;;;;;;18.00;5.22;;;6.70;90.00;;;;;;5073053;28;20036;-73
2021/03/18 10:28:10;;;;;;;6.45;2.08;;;6.70;89.60;;;;;;5073999;28;20078;-73
2021/03/18 10:30:53;;;;;;;11.35;2.38;;;6.70;85.00;;;;;;5073143;28;20037;-73
2021/03/18 10:33:21;;;;;;;3.97;1.45;;;6.90;84.20;;;;;;5073329;28;20058;-73
2021/03/18 10:35:53;;;;;;;7.88;3.15;;;7.10;83.20;;;;;;5073001;28;20542;-73
2021/03/18 10:38:37;;;;;;;5.50;2.10;;;7.30;82.40;;;;;;5072945;28;20045;-71
2021/03/18 10:41:06;;;;;;;9.45;2.00;;;7.40;80.40;;;;;;5073139;28;20045;-72
2021/03/18 10:43:36;;;;;;;4.32;1.40;;;7.40;78.50;;;;;;5073084;28;20032;-73
2021/03/18 10:46:05;;;;;;;5.88;2.10;;;7.50;77.50;;;;;;5072801;28;20404;-73
2021/03/18 10:48:33;;;;;;;5.88;1.88;;;7.40;77.40;;;;;;5055712;28;20040;-73
2021/03/18 10:51:16;;;;;;;8.65;1.70;;;7.30;78.10;;;;;;5073794;28;20043;-73
2021/03/18 10:53:44;;;;;;;11.30;1.73;;;7.20;78.00;;;;;;5073625;28;20043;-73
2021/03/18 10:56:17;;;;;;;5.80;1.50;;;7.10;78.00;;;;;;5072558;28;20472;-73
2021/03/18 10:58:44;;;;;;;5.95;2.08;;;7.00;78.70;;;;;;5073426;28;20075;-74
2021/03/18 11:01:20;;;;;;;8.38;2.28;;;6.90;78.80;;;;;;5073093;28;20106;-73
2021/03/18 11:03:48;;;;;;;7.63;2.22;;;6.80;79.70;;;;;;5073088;28;20067;-73
2021/03/18 11:06:22;;;;;;;6.20;2.60;;;6.80;79.80;;;;;;5072612;28;20041;-73
2021/03/18 11:08:50;;;;;;;7.05;1.83;;;6.70;79.90;;;;;;5072938;28;20392;-73
2021/03/18 11:11:22;;;;;;;7.70;2.00;;;6.70;80.10;;;;;;5073053;28;20090;-73
2021/03/18 11:13:48;;;;;;;10.88;3.58;;;6.60;79.40;;;;;;5073350;28;20431;-73
2021/03/18 11:16:24;;;;;;;4.80;1.80;;;6.60;80.40;;;;;;5072581;28;20158;-73
2021/03/18 11:18:56;;;;;;;9.65;1.98;;;6.60;80.40;;;;;;5073285;28;20043;-73
2021/03/18 11:21:23;;;;;;;8.18;2.35;;;6.50;80.70;;;;;;5072717;28;20071;-73
2021/03/18 11:23:54;;;;;;;11.27;2.42;;;6.40;80.60;;;;;;5072924;28;20115;-73
2021/03/18 11:26:25;;;;;;;7.57;2.25;;;6.40;81.20;;;;;;5073994;28;20115;-73
2021/03/18 11:28:56;;;;;;;9.10;2.47;;;6.40;81.80;;;;;;5072922;28;20037;-74
2021/03/18 11:31:24;;;;;;;6.97;1.70;;;6.40;82.20;;;;;;5073405;28;20045;-74
2021/03/18 11:33:50;;;;;;;8.95;1.98;;;6.40;82.80;;;;;;5072828;28;20067;-74
2021/03/18 11:36:17;;;;;;;12.48;2.05;;;6.40;83.10;;;;;;5072226;28;20174;-74
2021/03/18 11:38:43;;;;;;;9.20;1.98;;;6.30;83.10;;;;;;5055160;28;20051;-74
2021/03/18 11:41:09;;;;;;;7.60;1.90;;;6.40;83.90;;;;;;5073371;28;20388;-74
2021/03/18 11:43:35;;;;;;;6.97;1.90;;;6.40;84.50;;;;;;5072730;28;20067;-74
2021/03/18 11:46:01;;;;;;;14.18;2.20;;;6.50;84.30;;;;;;5072194;28;20036;-74
2021/03/18 11:48:27;;;;;;;9.77;2.22;;;6.40;84.70;;;;;;5072782;28;20039;-74
2021/03/18 11:50:53;;;;;;;6.47;2.13;;;6.40;84.30;;;;;;5075737;28;20040;-74
2021/03/18 11:53:19;;;;;;;10.35;1.85;;;6.50;84.70;;;;;;5058239;28;20032;-74
2021/03/18 11:55:45;;;;;;;10.10;2.00;;;6.50;84.50;;;;;;5075722;28;20159;-74
2021/03/18 11:58:11;;;;;;;8.20;2.30;;;6.50;84.70;;;;;;5075809;28;20064;-74
2021/03/18 12:00:37;;;;;;;9.40;2.40;;;6.70;83.90;;;;;;5075949;28;20471;-74
2021/03/18 12:03:05;;;;;;;11.75;2.42;;;6.60;83.90;;;;;;5075922;28;20078;-74
2021/03/18 12:05:31;;;;;;;12.25;3.33;;;6.60;84.00;;;;;;5075827;28;20040;-74
2021/03/18 12:07:58;;;;;;;8.95;2.35;;;6.70;84.20;;;;;;5057943;28;20041;-74
2021/03/18 12:10:24;;;;;;;13.15;2.20;;;6.60;83.60;;;;;;5075822;28;20033;-74
2021/03/18 12:12:49;;;;;;;14.40;2.72;;;6.70;83.70;;;;;;5076306;28;20481;-74
2021/03/18 12:15:16;;;;;;;8.65;2.40;;;6.60;83.40;;;;;;5075144;28;20090;-75
2021/03/18 12:17:42;;;;;;;10.18;2.67;;;6.70;84.30;;;;;;5075448;28;20457;-74
2021/03/18 12:20:12;;;;;;;12.77;2.63;;;6.70;84.10;;;;;;5075521;28;20040;-74
2021/03/18 12:22:38;;;;;;;11.65;3.67;;;6.60;84.70;;;;;;5076183;28;20119;-74
2021/03/18 12:25:05;;;;;;;9.40;2.50;;;6.60;85.00;;;;;;5075321;28;20120;-74
2021/03/18 12:27:32;;;;;;;8.48;2.80;;;6.60;85.90;;;;;;5075318;28;20048;-74
2021/03/18 12:29:58;;;;;;;11.38;3.10;;;6.60;86.50;;;;;;5075377;28;20028;-74
2021/03/18 12:32:24;;;;;;;10.50;3.10;;;6.50;87.30;;;;;;5075518;28;20037;-72
2021/03/18 12:34:50;;;;;;;13.93;3.60;;;6.30;87.80;;;;;;5075538;28;20075;-74
2021/03/18 12:37:17;;;;;;;15.60;3.47;;;6.40;87.80;;;;;;5075725;28;20398;-74
2021/03/18 12:39:44;;;;;;;10.65;2.90;;;6.50;88.00;;;;;;5075808;28;20045;-75
2021/03/18 12:42:11;;;;;;;12.93;3.03;;;6.50;88.00;;;;;;5071645;28;20043;-74
2021/03/18 12:44:39;;;;;;;11.52;2.78;;;6.50;88.20;;;;;;5083759;28;20040;-74
2021/03/18 12:47:05;;;;;;;9.27;3.00;;;6.60;87.40;;;;;;5094023;28;20059;-74
2021/03/18 12:49:31;;;;;;;10.45;3.22;;;6.60;87.40;;;;;;5095561;28;20032;-74
2021/03/18 12:51:57;;;;;;;19.52;3.63;;;6.60;87.70;;;;;;5095010;28;20036;-74
2021/03/18 12:54:23;;;;;;;9.48;3.13;;;6.60;87.10;;;;;;5094739;28;20483;-75
2021/03/18 12:56:48;;;;;;;8.98;2.63;;;6.60;86.80;;;;;;5095027;28;20048;-74
2021/03/18 12:59:14;;;;;;;8.75;2.55;;;6.70;86.80;;;;;;5095046;28;20103;-74
2021/03/18 13:01:40;;;;;;;10.82;2.28;;;6.60;86.40;;;;;;5094147;28;20472;-74